sensor_id;sensor_type;location;lat;lon;timestamp;temperature;humidity
5848;DHT22;8756;49.29324300;8.70599800;2022-12-31T00:01:19;12.60;99.90
5848;DHT22;8756;49.29324300;8.70599800;2022-12-31T00:03:46;12.60;99.90
5848;DHT22;8756;49.29324300;8.70599800;2022-12-31T00:06:21;12.50;99.90
5848;DHT22;8756;49.29324300;8.70599800;2022-12-31T00:08:53;12.50;99.90
5848;DHT22;8756;49.29324300;8.70599800;2022-12-31T00:11:20;12.50;99.90
5848;DHT22;8756;49.29324300;8.70599800;2022-12-31T00:13:47;12.40;99.90
5848;DHT22;8756;49.29324300;8.70599800;2022-12-31T00:16:25;12.40;99.90
5848;DHT22;8756;49.29324300;8.70599800;2022-12-31T00:18:55;12.40;99.90
5848;DHT22;8756;49.29324300;8.70599800;2022-12-31T00:21:24;12.30;99.90
5848;DHT22;8756;49.29324300;8.70599800;2022-12-31T00:23:50;12.30;99.90
5848;DHT22;8756;49.29324300;8.70599800;2022-12-31T00:26:19;12.30;99.90
5848;DHT22;8756;49.29324300;8.70599800;2022-12-31T00:28:47;12.30;99.90
5848;DHT22;8756;49.29324300;8.70599800;2022-12-31T00:31:34;12.20;99.90
5848;DHT22;8756;49.29324300;8.70599800;2022-12-31T00:34:01;12.30;99.90
5848;DHT22;8756;49.29324300;8.70599800;2022-12-31T00:36:30;12.20;99.90
5848;DHT22;8756;49.29324300;8.70599800;2022-12-31T00:38:59;12.20;99.90
5848;DHT22;8756;49.29324300;8.70599800;2022-12-31T00:41:25;12.20;99.90
5848;DHT22;8756;49.29324300;8.70599800;2022-12-31T00:43:52;12.20;99.90
5848;DHT22;8756;49.29324300;8.70599800;2022-12-31T00:46:19;12.20;99.90
5848;DHT22;8756;49.29324300;8.70599800;2022-12-31T00:48:45;12.20;99.90
5848;DHT22;8756;49.29324300;8.70599800;2022-12-31T00:51:13;12.20;99.90
5848;DHT22;8756;49.29324300;8.70599800;2022-12-31T00:53:40;12.20;99.90
5848;DHT22;8756;49.29324300;8.70599800;2022-12-31T00:56:15;12.20;99.90
5848;DHT22;8756;49.29324300;8.70599800;2022-12-31T00:58:42;12.20;99.90
5848;DHT22;8756;49.29324300;8.70599800;2022-12-31T01:01:34;12.20;99.90
5848;DHT22;8756;49.29324300;8.70599800;2022-12-31T01:04:05;12.30;99.90
5848;DHT22;8756;49.29324300;8.70599800;2022-12-31T01:06:32;12.30;99.90
5848;DHT22;8756;49.29324300;8.70599800;2022-12-31T01:08:59;12.40;99.90
5848;DHT22;8756;49.29324300;8.70599800;2022-12-31T01:11:25;12.40;99.90
5848;DHT22;8756;49.29324300;8.70599800;2022-12-31T01:16:27;12.40;99.90
5848;DHT22;8756;49.29324300;8.70599800;2022-12-31T01:18:59;12.50;99.90
5848;DHT22;8756;49.29324300;8.70599800;2022-12-31T01:21:26;12.50;99.90
5848;DHT22;8756;49.29324300;8.70599800;2022-12-31T01:23:52;12.50;99.90
5848;DHT22;8756;49.29324300;8.70599800;2022-12-31T01:26:19;12.50;99.90
5848;DHT22;8756;49.29324300;8.70599800;2022-12-31T01:28:47;12.50;99.90
5848;DHT22;8756;49.29324300;8.70599800;2022-12-31T01:31:15;12.50;99.90
5848;DHT22;8756;49.29324300;8.70599800;2022-12-31T01:33:42;12.60;99.90
5848;DHT22;8756;49.29324300;8.70599800;2022-12-31T01:36:14;12.60;99.90
5848;DHT22;8756;49.29324300;8.70599800;2022-12-31T01:38:42;12.60;99.90
5848;DHT22;8756;49.29324300;8.70599800;2022-12-31T01:41:17;12.60;99.90
5848;DHT22;8756;49.29324300;8.70599800;2022-12-31T01:43:51;12.60;99.90
5848;DHT22;8756;49.29324300;8.70599800;2022-12-31T01:46:38;12.60;99.90
5848;DHT22;8756;49.29324300;8.70599800;2022-12-31T01:49:18;12.60;99.90
5848;DHT22;8756;49.29324300;8.70599800;2022-12-31T01:52:07;12.60;99.90
5848;DHT22;8756;49.29324300;8.70599800;2022-12-31T01:54:42;12.60;99.90
5848;DHT22;8756;49.29324300;8.70599800;2022-12-31T01:57:10;12.70;99.90
5848;DHT22;8756;49.29324300;8.70599800;2022-12-31T01:59:36;12.60;99.90
5848;DHT22;8756;49.29324300;8.70599800;2022-12-31T02:02:02;12.60;99.90
5848;DHT22;8756;49.29324300;8.70599800;2022-12-31T02:04:29;12.70;99.90
5848;DHT22;8756;49.29324300;8.70599800;2022-12-31T02:07:01;12.70;99.90
5848;DHT22;8756;49.29324300;8.70599800;2022-12-31T02:09:29;12.70;99.90
5848;DHT22;8756;49.29324300;8.70599800;2022-12-31T02:11:55;12.70;99.90
5848;DHT22;8756;49.29324300;8.70599800;2022-12-31T02:14:34;12.70;99.90
5848;DHT22;8756;49.29324300;8.70599800;2022-12-31T02:17:35;12.70;99.90
5848;DHT22;8756;49.29324300;8.70599800;2022-12-31T02:20:42;12.70;99.90
5848;DHT22;8756;49.29324300;8.70599800;2022-12-31T02:31:51;12.60;99.90
5848;DHT22;8756;49.29324300;8.70599800;2022-12-31T02:34:53;12.60;99.90
5848;DHT22;8756;49.29324300;8.70599800;2022-12-31T02:37:22;12.60;99.90
5848;DHT22;8756;49.29324300;8.70599800;2022-12-31T02:39:50;12.60;99.90
5848;DHT22;8756;49.29324300;8.70599800;2022-12-31T02:42:16;12.70;99.90
5848;DHT22;8756;49.29324300;8.70599800;2022-12-31T02:44:41;12.70;99.90
5848;DHT22;8756;49.29324300;8.70599800;2022-12-31T02:50:04;12.80;99.90
5848;DHT22;8756;49.29324300;8.70599800;2022-12-31T02:58:53;13.10;99.90
5848;DHT22;8756;49.29324300;8.70599800;2022-12-31T03:02:03;13.10;99.90
5848;DHT22;8756;49.29324300;8.70599800;2022-12-31T03:04:39;13.10;99.90
5848;DHT22;8756;49.29324300;8.70599800;2022-12-31T03:07:10;13.10;99.90
5848;DHT22;8756;49.29324300;8.70599800;2022-12-31T03:09:38;13.20;99.90
5848;DHT22;8756;49.29324300;8.70599800;2022-12-31T03:12:06;13.20;99.90
5848;DHT22;8756;49.29324300;8.70599800;2022-12-31T03:14:52;13.20;99.90
5848;DHT22;8756;49.29324300;8.70599800;2022-12-31T03:17:18;13.10;99.90
5848;DHT22;8756;49.29324300;8.70599800;2022-12-31T03:19:44;13.10;99.90
5848;DHT22;8756;49.29324300;8.70599800;2022-12-31T03:22:28;13.10;99.90
5848;DHT22;8756;49.29324300;8.70599800;2022-12-31T03:25:00;13.10;99.90
5848;DHT22;8756;49.29324300;8.70599800;2022-12-31T03:28:04;13.10;99.90
5848;DHT22;8756;49.29324300;8.70599800;2022-12-31T03:30:36;13.10;99.90
5848;DHT22;8756;49.29324300;8.70599800;2022-12-31T03:33:04;13.20;99.90
5848;DHT22;8756;49.29324300;8.70599800;2022-12-31T03:35:32;13.20;99.90
5848;DHT22;8756;49.29324300;8.70599800;2022-12-31T03:37:59;13.20;99.90
5848;DHT22;8756;49.29324300;8.70599800;2022-12-31T03:40:26;13.20;99.90
5848;DHT22;8756;49.29324300;8.70599800;2022-12-31T03:42:53;13.20;99.90
5848;DHT22;8756;49.29324300;8.70599800;2022-12-31T03:45:19;13.30;99.90
5848;DHT22;8756;49.29324300;8.70599800;2022-12-31T03:47:45;13.20;99.90
5848;DHT22;8756;49.29324300;8.70599800;2022-12-31T03:50:13;13.30;99.90
5848;DHT22;8756;49.29324300;8.70599800;2022-12-31T03:52:39;13.30;99.90
5848;DHT22;8756;49.29324300;8.70599800;2022-12-31T03:55:06;13.30;99.90
5848;DHT22;8756;49.29324300;8.70599800;2022-12-31T03:57:32;13.30;99.90
5848;DHT22;8756;49.29324300;8.70599800;2022-12-31T03:59:58;13.30;99.90
5848;DHT22;8756;49.29324300;8.70599800;2022-12-31T04:02:24;13.30;99.90
5848;DHT22;8756;49.29324300;8.70599800;2022-12-31T04:04:50;13.30;99.90
5848;DHT22;8756;49.29324300;8.70599800;2022-12-31T04:07:16;13.30;99.90
5848;DHT22;8756;49.29324300;8.70599800;2022-12-31T04:09:41;13.30;99.90
5848;DHT22;8756;49.29324300;8.70599800;2022-12-31T04:12:07;13.40;99.90
5848;DHT22;8756;49.29324300;8.70599800;2022-12-31T04:14:33;13.30;99.90
5848;DHT22;8756;49.29324300;8.70599800;2022-12-31T04:16:59;13.40;99.90
5848;DHT22;8756;49.29324300;8.70599800;2022-12-31T04:19:24;13.40;99.90
5848;DHT22;8756;49.29324300;8.70599800;2022-12-31T04:21:50;13.40;99.90
5848;DHT22;8756;49.29324300;8.70599800;2022-12-31T04:24:15;13.40;99.90
5848;DHT22;8756;49.29324300;8.70599800;2022-12-31T04:26:41;13.50;99.90
5848;DHT22;8756;49.29324300;8.70599800;2022-12-31T04:29:08;13.50;99.90
5848;DHT22;8756;49.29324300;8.70599800;2022-12-31T04:31:35;13.50;99.90
5848;DHT22;8756;49.29324300;8.70599800;2022-12-31T04:34:01;13.60;99.90
5848;DHT22;8756;49.29324300;8.70599800;2022-12-31T04:36:27;13.60;99.90
5848;DHT22;8756;49.29324300;8.70599800;2022-12-31T04:38:53;13.70;99.90
5848;DHT22;8756;49.29324300;8.70599800;2022-12-31T04:41:19;13.70;99.90
5848;DHT22;8756;49.29324300;8.70599800;2022-12-31T04:43:52;13.70;99.90
5848;DHT22;8756;49.29324300;8.70599800;2022-12-31T04:46:25;13.70;99.90
5848;DHT22;8756;49.29324300;8.70599800;2022-12-31T04:48:52;13.70;99.90
5848;DHT22;8756;49.29324300;8.70599800;2022-12-31T04:51:19;13.70;99.90
5848;DHT22;8756;49.29324300;8.70599800;2022-12-31T04:53:45;13.70;99.90
5848;DHT22;8756;49.29324300;8.70599800;2022-12-31T04:56:12;13.70;99.90
5848;DHT22;8756;49.29324300;8.70599800;2022-12-31T04:58:39;13.70;99.90
5848;DHT22;8756;49.29324300;8.70599800;2022-12-31T05:01:05;13.70;99.90
5848;DHT22;8756;49.29324300;8.70599800;2022-12-31T05:03:31;13.70;99.90
5848;DHT22;8756;49.29324300;8.70599800;2022-12-31T05:06:02;13.70;99.90
5848;DHT22;8756;49.29324300;8.70599800;2022-12-31T05:08:30;13.70;99.90
5848;DHT22;8756;49.29324300;8.70599800;2022-12-31T05:10:56;13.70;99.90
5848;DHT22;8756;49.29324300;8.70599800;2022-12-31T05:13:23;13.80;99.90
5848;DHT22;8756;49.29324300;8.70599800;2022-12-31T05:15:49;13.80;99.90
5848;DHT22;8756;49.29324300;8.70599800;2022-12-31T05:18:15;13.80;99.90
5848;DHT22;8756;49.29324300;8.70599800;2022-12-31T05:20:41;13.80;99.90
5848;DHT22;8756;49.29324300;8.70599800;2022-12-31T05:23:07;13.80;99.90
5848;DHT22;8756;49.29324300;8.70599800;2022-12-31T05:25:33;13.80;99.90
5848;DHT22;8756;49.29324300;8.70599800;2022-12-31T05:27:59;13.90;99.90
5848;DHT22;8756;49.29324300;8.70599800;2022-12-31T05:30:25;13.90;99.90
5848;DHT22;8756;49.29324300;8.70599800;2022-12-31T05:32:51;13.90;99.90
5848;DHT22;8756;49.29324300;8.70599800;2022-12-31T05:35:17;13.90;99.90
5848;DHT22;8756;49.29324300;8.70599800;2022-12-31T05:37:43;13.90;99.90
5848;DHT22;8756;49.29324300;8.70599800;2022-12-31T05:40:09;14.00;99.90
5848;DHT22;8756;49.29324300;8.70599800;2022-12-31T05:42:35;14.00;99.90
5848;DHT22;8756;49.29324300;8.70599800;2022-12-31T05:45:01;14.00;99.90
5848;DHT22;8756;49.29324300;8.70599800;2022-12-31T05:47:26;14.10;99.90
5848;DHT22;8756;49.29324300;8.70599800;2022-12-31T05:49:52;14.10;99.90
5848;DHT22;8756;49.29324300;8.70599800;2022-12-31T05:52:18;14.10;99.90
5848;DHT22;8756;49.29324300;8.70599800;2022-12-31T05:54:44;14.10;99.90
5848;DHT22;8756;49.29324300;8.70599800;2022-12-31T05:57:10;14.00;99.90
5848;DHT22;8756;49.29324300;8.70599800;2022-12-31T05:59:36;14.00;99.90
5848;DHT22;8756;49.29324300;8.70599800;2022-12-31T06:02:02;14.00;99.90
5848;DHT22;8756;49.29324300;8.70599800;2022-12-31T06:04:28;14.10;99.90
5848;DHT22;8756;49.29324300;8.70599800;2022-12-31T06:06:54;14.10;99.90
5848;DHT22;8756;49.29324300;8.70599800;2022-12-31T06:09:20;14.10;99.90
5848;DHT22;8756;49.29324300;8.70599800;2022-12-31T06:11:46;14.10;99.90
5848;DHT22;8756;49.29324300;8.70599800;2022-12-31T06:14:15;14.00;99.90
5848;DHT22;8756;49.29324300;8.70599800;2022-12-31T06:16:40;14.00;99.90
5848;DHT22;8756;49.29324300;8.70599800;2022-12-31T06:19:07;14.00;99.90
5848;DHT22;8756;49.29324300;8.70599800;2022-12-31T06:21:33;14.00;99.90
5848;DHT22;8756;49.29324300;8.70599800;2022-12-31T06:23:58;14.00;99.90
5848;DHT22;8756;49.29324300;8.70599800;2022-12-31T06:26:25;14.00;99.90
5848;DHT22;8756;49.29324300;8.70599800;2022-12-31T06:28:52;14.00;99.90
5848;DHT22;8756;49.29324300;8.70599800;2022-12-31T06:31:18;14.00;99.90
5848;DHT22;8756;49.29324300;8.70599800;2022-12-31T06:33:43;14.00;99.90
5848;DHT22;8756;49.29324300;8.70599800;2022-12-31T06:36:13;13.90;99.90
5848;DHT22;8756;49.29324300;8.70599800;2022-12-31T06:38:43;13.90;99.90
5848;DHT22;8756;49.29324300;8.70599800;2022-12-31T06:41:13;13.90;99.90
5848;DHT22;8756;49.29324300;8.70599800;2022-12-31T06:43:41;13.90;99.90
5848;DHT22;8756;49.29324300;8.70599800;2022-12-31T06:46:10;13.90;99.90
5848;DHT22;8756;49.29324300;8.70599800;2022-12-31T06:48:40;13.90;99.90
5848;DHT22;8756;49.29324300;8.70599800;2022-12-31T06:51:13;13.90;99.90
5848;DHT22;8756;49.29324300;8.70599800;2022-12-31T06:53:40;13.90;99.90
5848;DHT22;8756;49.29324300;8.70599800;2022-12-31T06:56:17;13.90;99.90
5848;DHT22;8756;49.29324300;8.70599800;2022-12-31T06:58:45;13.90;99.90
5848;DHT22;8756;49.29324300;8.70599800;2022-12-31T07:04:44;13.90;99.90
5848;DHT22;8756;49.29324300;8.70599800;2022-12-31T07:07:34;13.90;99.90
5848;DHT22;8756;49.29324300;8.70599800;2022-12-31T07:19:20;13.80;99.90
5848;DHT22;8756;49.29324300;8.70599800;2022-12-31T07:21:48;13.80;99.90
5848;DHT22;8756;49.29324300;8.70599800;2022-12-31T07:24:16;13.80;99.90
5848;DHT22;8756;49.29324300;8.70599800;2022-12-31T07:33:06;13.70;99.90
5848;DHT22;8756;49.29324300;8.70599800;2022-12-31T07:38:41;13.70;99.90
5848;DHT22;8756;49.29324300;8.70599800;2022-12-31T07:44:27;13.70;99.90
5848;DHT22;8756;49.29324300;8.70599800;2022-12-31T07:47:03;13.70;99.90
5848;DHT22;8756;49.29324300;8.70599800;2022-12-31T07:49:31;13.70;99.90
5848;DHT22;8756;49.29324300;8.70599800;2022-12-31T07:51:58;13.70;99.90
5848;DHT22;8756;49.29324300;8.70599800;2022-12-31T07:54:23;13.70;99.90
5848;DHT22;8756;49.29324300;8.70599800;2022-12-31T07:56:49;13.70;99.90
5848;DHT22;8756;49.29324300;8.70599800;2022-12-31T08:06:17;13.70;99.90
5848;DHT22;8756;49.29324300;8.70599800;2022-12-31T08:11:40;13.70;99.90
5848;DHT22;8756;49.29324300;8.70599800;2022-12-31T08:14:09;13.60;99.90
5848;DHT22;8756;49.29324300;8.70599800;2022-12-31T08:16:37;13.60;99.90
5848;DHT22;8756;49.29324300;8.70599800;2022-12-31T08:19:03;13.60;99.90
5848;DHT22;8756;49.29324300;8.70599800;2022-12-31T08:30:16;13.60;99.90
5848;DHT22;8756;49.29324300;8.70599800;2022-12-31T08:32:50;13.70;99.90
5848;DHT22;8756;49.29324300;8.70599800;2022-12-31T08:38:55;13.70;99.90
5848;DHT22;8756;49.29324300;8.70599800;2022-12-31T08:41:42;13.80;99.90
5848;DHT22;8756;49.29324300;8.70599800;2022-12-31T08:49:54;14.00;99.90
5848;DHT22;8756;49.29324300;8.70599800;2022-12-31T08:52:24;14.00;99.90
5848;DHT22;8756;49.29324300;8.70599800;2022-12-31T08:54:51;14.10;99.90
5848;DHT22;8756;49.29324300;8.70599800;2022-12-31T09:00:16;14.10;99.90
5848;DHT22;8756;49.29324300;8.70599800;2022-12-31T09:11:51;14.20;99.90
5848;DHT22;8756;49.29324300;8.70599800;2022-12-31T09:20:26;14.20;99.90
5848;DHT22;8756;49.29324300;8.70599800;2022-12-31T09:22:53;14.30;99.90
5848;DHT22;8756;49.29324300;8.70599800;2022-12-31T09:25:21;14.30;99.90
5848;DHT22;8756;49.29324300;8.70599800;2022-12-31T09:36:28;14.30;99.90
5848;DHT22;8756;49.29324300;8.70599800;2022-12-31T09:48:25;14.30;99.90
5848;DHT22;8756;49.29324300;8.70599800;2022-12-31T09:56:36;14.40;99.90
5848;DHT22;8756;49.29324300;8.70599800;2022-12-31T09:59:23;14.50;99.90
5848;DHT22;8756;49.29324300;8.70599800;2022-12-31T10:02:22;14.50;99.90
5848;DHT22;8756;49.29324300;8.70599800;2022-12-31T10:11:02;14.60;99.90
5848;DHT22;8756;49.29324300;8.70599800;2022-12-31T10:14:32;14.60;99.90
5848;DHT22;8756;49.29324300;8.70599800;2022-12-31T10:19:43;14.80;99.90
5848;DHT22;8756;49.29324300;8.70599800;2022-12-31T10:26:05;15.00;99.90
5848;DHT22;8756;49.29324300;8.70599800;2022-12-31T10:31:55;15.10;99.90
5848;DHT22;8756;49.29324300;8.70599800;2022-12-31T10:40:52;15.20;99.90
5848;DHT22;8756;49.29324300;8.70599800;2022-12-31T11:01:30;15.50;99.90
5848;DHT22;8756;49.29324300;8.70599800;2022-12-31T11:04:36;15.50;99.90
5848;DHT22;8756;49.29324300;8.70599800;2022-12-31T11:14:41;15.70;99.90
5848;DHT22;8756;49.29324300;8.70599800;2022-12-31T11:23:33;15.70;99.90
5848;DHT22;8756;49.29324300;8.70599800;2022-12-31T11:26:28;15.70;99.90
5848;DHT22;8756;49.29324300;8.70599800;2022-12-31T11:29:23;15.80;99.90
5848;DHT22;8756;49.29324300;8.70599800;2022-12-31T11:42:31;15.90;99.90
5848;DHT22;8756;49.29324300;8.70599800;2022-12-31T11:48:50;16.00;99.90
5848;DHT22;8756;49.29324300;8.70599800;2022-12-31T11:51:59;16.10;99.90
5848;DHT22;8756;49.29324300;8.70599800;2022-12-31T11:57:53;16.10;99.90
5848;DHT22;8756;49.29324300;8.70599800;2022-12-31T12:00:25;16.20;99.90
5848;DHT22;8756;49.29324300;8.70599800;2022-12-31T12:03:05;16.20;99.90
5848;DHT22;8756;49.29324300;8.70599800;2022-12-31T12:05:32;16.20;99.90
5848;DHT22;8756;49.29324300;8.70599800;2022-12-31T12:08:00;16.20;99.90
5848;DHT22;8756;49.29324300;8.70599800;2022-12-31T12:10:45;16.20;99.90
5848;DHT22;8756;49.29324300;8.70599800;2022-12-31T12:13:26;16.20;99.90
5848;DHT22;8756;49.29324300;8.70599800;2022-12-31T12:15:55;16.30;99.90
5848;DHT22;8756;49.29324300;8.70599800;2022-12-31T12:23:39;16.30;99.90
5848;DHT22;8756;49.29324300;8.70599800;2022-12-31T12:26:38;16.30;99.90
5848;DHT22;8756;49.29324300;8.70599800;2022-12-31T12:29:17;16.40;99.90
5848;DHT22;8756;49.29324300;8.70599800;2022-12-31T12:32:01;16.30;99.90
5848;DHT22;8756;49.29324300;8.70599800;2022-12-31T12:34:31;16.30;99.90
5848;DHT22;8756;49.29324300;8.70599800;2022-12-31T12:36:59;16.30;99.90
5848;DHT22;8756;49.29324300;8.70599800;2022-12-31T12:39:30;16.30;99.90
5848;DHT22;8756;49.29324300;8.70599800;2022-12-31T12:42:06;16.30;99.90
5848;DHT22;8756;49.29324300;8.70599800;2022-12-31T12:44:35;16.40;99.90
5848;DHT22;8756;49.29324300;8.70599800;2022-12-31T12:47:02;16.40;99.90
5848;DHT22;8756;49.29324300;8.70599800;2022-12-31T12:49:51;16.50;99.90
5848;DHT22;8756;49.29324300;8.70599800;2022-12-31T12:56:03;16.50;99.90
5848;DHT22;8756;49.29324300;8.70599800;2022-12-31T12:58:56;16.60;99.90
5848;DHT22;8756;49.29324300;8.70599800;2022-12-31T13:05:13;16.50;99.90
5848;DHT22;8756;49.29324300;8.70599800;2022-12-31T13:17:52;16.60;99.90
5848;DHT22;8756;49.29324300;8.70599800;2022-12-31T13:20:22;16.50;99.90
5848;DHT22;8756;49.29324300;8.70599800;2022-12-31T13:23:20;16.50;99.90
5848;DHT22;8756;49.29324300;8.70599800;2022-12-31T13:28:53;16.50;99.90
5848;DHT22;8756;49.29324300;8.70599800;2022-12-31T13:31:45;16.50;99.90
5848;DHT22;8756;49.29324300;8.70599800;2022-12-31T13:34:19;16.40;99.90
5848;DHT22;8756;49.29324300;8.70599800;2022-12-31T13:36:50;16.40;99.90
5848;DHT22;8756;49.29324300;8.70599800;2022-12-31T13:39:27;16.30;99.90
5848;DHT22;8756;49.29324300;8.70599800;2022-12-31T13:45:02;16.30;99.90
5848;DHT22;8756;49.29324300;8.70599800;2022-12-31T13:47:34;16.30;99.90
5848;DHT22;8756;49.29324300;8.70599800;2022-12-31T13:50:14;16.30;99.90
5848;DHT22;8756;49.29324300;8.70599800;2022-12-31T13:55:53;16.20;99.90
5848;DHT22;8756;49.29324300;8.70599800;2022-12-31T14:01:37;16.20;99.90
5848;DHT22;8756;49.29324300;8.70599800;2022-12-31T14:04:16;16.10;99.90
5848;DHT22;8756;49.29324300;8.70599800;2022-12-31T14:07:00;16.10;99.90
5848;DHT22;8756;49.29324300;8.70599800;2022-12-31T14:09:32;16.10;99.90
5848;DHT22;8756;49.29324300;8.70599800;2022-12-31T14:12:25;16.10;99.90
5848;DHT22;8756;49.29324300;8.70599800;2022-12-31T14:18:08;16.00;99.90
5848;DHT22;8756;49.29324300;8.70599800;2022-12-31T14:20:51;16.00;99.90
5848;DHT22;8756;49.29324300;8.70599800;2022-12-31T14:23:34;15.90;99.90
5848;DHT22;8756;49.29324300;8.70599800;2022-12-31T14:26:08;15.90;99.90
5848;DHT22;8756;49.29324300;8.70599800;2022-12-31T14:40:18;15.70;99.90
5848;DHT22;8756;49.29324300;8.70599800;2022-12-31T14:45:27;15.60;99.90
5848;DHT22;8756;49.29324300;8.70599800;2022-12-31T14:50:50;15.50;99.90
5848;DHT22;8756;49.29324300;8.70599800;2022-12-31T14:53:26;15.40;99.90
5848;DHT22;8756;49.29324300;8.70599800;2022-12-31T14:56:04;15.40;99.90
5848;DHT22;8756;49.29324300;8.70599800;2022-12-31T14:59:00;15.40;99.90
5848;DHT22;8756;49.29324300;8.70599800;2022-12-31T15:01:26;15.30;99.90
5848;DHT22;8756;49.29324300;8.70599800;2022-12-31T15:03:54;15.30;99.90
5848;DHT22;8756;49.29324300;8.70599800;2022-12-31T15:15:20;15.10;99.90
5848;DHT22;8756;49.29324300;8.70599800;2022-12-31T15:21:35;15.00;99.90
5848;DHT22;8756;49.29324300;8.70599800;2022-12-31T15:24:27;15.00;99.90
5848;DHT22;8756;49.29324300;8.70599800;2022-12-31T15:27:03;14.90;99.90
5848;DHT22;8756;49.29324300;8.70599800;2022-12-31T15:29:30;14.80;99.90
5848;DHT22;8756;49.29324300;8.70599800;2022-12-31T15:32:00;14.80;99.90
5848;DHT22;8756;49.29324300;8.70599800;2022-12-31T15:34:31;14.70;99.90
5848;DHT22;8756;49.29324300;8.70599800;2022-12-31T15:37:04;14.70;99.90
5848;DHT22;8756;49.29324300;8.70599800;2022-12-31T15:41:58;14.60;99.90
5848;DHT22;8756;49.29324300;8.70599800;2022-12-31T15:44:34;14.70;99.90
5848;DHT22;8756;49.29324300;8.70599800;2022-12-31T15:47:51;14.60;99.90
5848;DHT22;8756;49.29324300;8.70599800;2022-12-31T15:50:21;14.70;99.90
5848;DHT22;8756;49.29324300;8.70599800;2022-12-31T15:52:54;14.70;99.90
5848;DHT22;8756;49.29324300;8.70599800;2022-12-31T15:58:23;14.60;99.90
5848;DHT22;8756;49.29324300;8.70599800;2022-12-31T16:03:54;14.60;99.90
5848;DHT22;8756;49.29324300;8.70599800;2022-12-31T16:06:37;14.60;99.90
5848;DHT22;8756;49.29324300;8.70599800;2022-12-31T16:09:16;14.60;99.90
5848;DHT22;8756;49.29324300;8.70599800;2022-12-31T16:11:43;14.60;99.90
5848;DHT22;8756;49.29324300;8.70599800;2022-12-31T16:14:36;14.60;99.90
5848;DHT22;8756;49.29324300;8.70599800;2022-12-31T16:17:05;14.60;99.90
5848;DHT22;8756;49.29324300;8.70599800;2022-12-31T16:19:44;14.60;99.90
5848;DHT22;8756;49.29324300;8.70599800;2022-12-31T16:22:38;14.60;99.90
5848;DHT22;8756;49.29324300;8.70599800;2022-12-31T16:25:06;14.60;99.90
5848;DHT22;8756;49.29324300;8.70599800;2022-12-31T16:27:34;14.50;99.90
5848;DHT22;8756;49.29324300;8.70599800;2022-12-31T16:30:05;14.40;99.90
5848;DHT22;8756;49.29324300;8.70599800;2022-12-31T16:32:35;14.40;99.90
5848;DHT22;8756;49.29324300;8.70599800;2022-12-31T16:35:02;14.40;99.90
5848;DHT22;8756;49.29324300;8.70599800;2022-12-31T16:37:45;14.40;99.90
5848;DHT22;8756;49.29324300;8.70599800;2022-12-31T16:40:20;14.30;99.90
5848;DHT22;8756;49.29324300;8.70599800;2022-12-31T16:42:48;14.30;99.90
5848;DHT22;8756;49.29324300;8.70599800;2022-12-31T16:48:15;14.30;99.90
5848;DHT22;8756;49.29324300;8.70599800;2022-12-31T16:50:48;14.20;99.90
5848;DHT22;8756;49.29324300;8.70599800;2022-12-31T16:53:18;14.20;99.90
5848;DHT22;8756;49.29324300;8.70599800;2022-12-31T16:55:53;14.20;99.90
5848;DHT22;8756;49.29324300;8.70599800;2022-12-31T16:58:29;14.20;99.90
5848;DHT22;8756;49.29324300;8.70599800;2022-12-31T17:01:10;14.20;99.90
5848;DHT22;8756;49.29324300;8.70599800;2022-12-31T17:03:51;14.20;99.90
5848;DHT22;8756;49.29324300;8.70599800;2022-12-31T17:06:20;14.20;99.90
5848;DHT22;8756;49.29324300;8.70599800;2022-12-31T17:12:23;14.10;99.90
5848;DHT22;8756;49.29324300;8.70599800;2022-12-31T17:14:48;14.10;99.90
5848;DHT22;8756;49.29324300;8.70599800;2022-12-31T17:17:23;14.10;99.90
5848;DHT22;8756;49.29324300;8.70599800;2022-12-31T17:19:55;14.10;99.90
5848;DHT22;8756;49.29324300;8.70599800;2022-12-31T17:22:31;14.10;99.90
5848;DHT22;8756;49.29324300;8.70599800;2022-12-31T17:30:21;14.00;99.90
5848;DHT22;8756;49.29324300;8.70599800;2022-12-31T17:35:38;14.00;99.90
5848;DHT22;8756;49.29324300;8.70599800;2022-12-31T17:41:32;14.00;99.90
5848;DHT22;8756;49.29324300;8.70599800;2022-12-31T17:43:34;14.00;99.90
5848;DHT22;8756;49.29324300;8.70599800;2022-12-31T17:46:02;14.00;99.90
5848;DHT22;8756;49.29324300;8.70599800;2022-12-31T17:48:30;14.00;99.90
5848;DHT22;8756;49.29324300;8.70599800;2022-12-31T17:50:57;14.00;99.90
5848;DHT22;8756;49.29324300;8.70599800;2022-12-31T17:53:24;14.00;99.90
5848;DHT22;8756;49.29324300;8.70599800;2022-12-31T17:55:52;14.00;99.90
5848;DHT22;8756;49.29324300;8.70599800;2022-12-31T17:58:35;14.00;99.90
5848;DHT22;8756;49.29324300;8.70599800;2022-12-31T18:01:21;14.00;99.90
5848;DHT22;8756;49.29324300;8.70599800;2022-12-31T18:03:47;14.00;99.90
5848;DHT22;8756;49.29324300;8.70599800;2022-12-31T18:06:15;13.90;99.90
5848;DHT22;8756;49.29324300;8.70599800;2022-12-31T18:08:41;13.90;99.90
5848;DHT22;8756;49.29324300;8.70599800;2022-12-31T18:11:12;13.90;99.90
5848;DHT22;8756;49.29324300;8.70599800;2022-12-31T18:13:40;13.90;99.90
5848;DHT22;8756;49.29324300;8.70599800;2022-12-31T18:16:06;13.90;99.90
5848;DHT22;8756;49.29324300;8.70599800;2022-12-31T18:18:33;13.90;99.90
5848;DHT22;8756;49.29324300;8.70599800;2022-12-31T18:21:19;13.80;99.90
5848;DHT22;8756;49.29324300;8.70599800;2022-12-31T18:23:57;13.80;99.90
5848;DHT22;8756;49.29324300;8.70599800;2022-12-31T18:26:25;13.80;99.90
5848;DHT22;8756;49.29324300;8.70599800;2022-12-31T18:28:52;13.80;99.90
5848;DHT22;8756;49.29324300;8.70599800;2022-12-31T18:31:19;13.80;99.90
5848;DHT22;8756;49.29324300;8.70599800;2022-12-31T18:33:46;13.80;99.90
5848;DHT22;8756;49.29324300;8.70599800;2022-12-31T18:36:14;13.70;99.90
5848;DHT22;8756;49.29324300;8.70599800;2022-12-31T18:38:40;13.70;99.90
5848;DHT22;8756;49.29324300;8.70599800;2022-12-31T18:41:14;13.70;99.90
5848;DHT22;8756;49.29324300;8.70599800;2022-12-31T18:43:41;13.70;99.90
5848;DHT22;8756;49.29324300;8.70599800;2022-12-31T18:46:11;13.60;99.90
5848;DHT22;8756;49.29324300;8.70599800;2022-12-31T18:48:39;13.60;99.90
5848;DHT22;8756;49.29324300;8.70599800;2022-12-31T18:51:13;13.50;99.90
5848;DHT22;8756;49.29324300;8.70599800;2022-12-31T18:53:40;13.40;99.90
5848;DHT22;8756;49.29324300;8.70599800;2022-12-31T18:56:19;13.40;99.90